Trinity, North Carolina
Current Conditions -  °F | °C
As of 5:54 AM on Monday 20 Oct 2014 (Local Time) from KGSO Reporting Station
Scattered Clouds Scattered Clouds  
Wind Chill: 40°   Ceiling: Unl
Heat Index: 43°   Visibility: 10mi
Dew Point: 40°   Wind: 5mph
Humidity: 89%   Direction: 200°SSW
Pressure: 30.12"   Gusts: NA
Location:  35.89°N, 79.99°W
Report Text: KGSO 200954Z 20004KT 10SM SCT250 06/04 A3012 RMK AO2 SLP197 T00610044
Loading
Personal Weather Stations






























Interactive Weather Map
Tropical Storm Tracking
New forecast layout! Learn more

10-Day Weather Forecast

Advertisements
Track Severe Weather on mobile